sensor_id;sensor_type;location;lat;lon;timestamp;P1;durP1;ratioP1;P2;durP2;ratioP2
51515;SDS011;37603;55.614;37.326;2023-03-01T00:02:36;0.9;;;0.4;;
51515;SDS011;37603;55.614;37.326;2023-03-01T00:08:35;1.1;;;0.4;;
51515;SDS011;37603;55.614;37.326;2023-03-01T00:14:33;0.5;;;0.3;;
51515;SDS011;37603;55.614;37.326;2023-03-01T00:20:32;3.2;;;0.4;;
51515;SDS011;37603;55.614;37.326;2023-03-01T00:26:30;1.4;;;0.5;;
51515;SDS011;37603;55.614;37.326;2023-03-01T00:32:29;1.0;;;0.4;;
51515;SDS011;37603;55.614;37.326;2023-03-01T00:38:27;1.4;;;0.3;;
51515;SDS011;37603;55.614;37.326;2023-03-01T00:44:26;1.7;;;0.4;;
51515;SDS011;37603;55.614;37.326;2023-03-01T00:50:24;1.6;;;0.4;;
51515;SDS011;37603;55.614;37.326;2023-03-01T00:56:23;3.0;;;0.3;;
51515;SDS011;37603;55.614;37.326;2023-03-01T01:02:22;2.3;;;0.6;;
51515;SDS011;37603;55.614;37.326;2023-03-01T01:08:20;0.9;;;0.5;;
51515;SDS011;37603;55.614;37.326;2023-03-01T01:14:18;1.2;;;0.3;;
51515;SDS011;37603;55.614;37.326;2023-03-01T01:20:17;0.9;;;0.3;;
51515;SDS011;37603;55.614;37.326;2023-03-01T01:26:16;1.9;;;0.3;;
51515;SDS011;37603;55.614;37.326;2023-03-01T01:32:14;1.4;;;0.5;;
51515;SDS011;37603;55.614;37.326;2023-03-01T01:38:13;1.1;;;0.4;;
51515;SDS011;37603;55.614;37.326;2023-03-01T01:44:13;4.0;;;0.6;;
51515;SDS011;37603;55.614;37.326;2023-03-01T01:50:10;2.6;;;0.3;;
51515;SDS011;37603;55.614;37.326;2023-03-01T01:56:08;0.7;;;0.2;;
51515;SDS011;37603;55.614;37.326;2023-03-01T02:02:07;3.5;;;0.5;;
51515;SDS011;37603;55.614;37.326;2023-03-01T02:08:05;1.2;;;0.3;;
51515;SDS011;37603;55.614;37.326;2023-03-01T02:14:04;1.0;;;0.4;;
51515;SDS011;37603;55.614;37.326;2023-03-01T02:20:04;3.0;;;0.5;;
51515;SDS011;37603;55.614;37.326;2023-03-01T02:26:01;0.5;;;0.1;;
51515;SDS011;37603;55.614;37.326;2023-03-01T02:31:59;1.6;;;0.4;;
51515;SDS011;37603;55.614;37.326;2023-03-01T02:37:58;1.1;;;0.2;;
51515;SDS011;37603;55.614;37.326;2023-03-01T02:43:56;0.9;;;0.2;;
51515;SDS011;37603;55.614;37.326;2023-03-01T02:49:54;1.3;;;0.2;;
51515;SDS011;37603;55.614;37.326;2023-03-01T02:55:53;0.2;;;0.2;;
51515;SDS011;37603;55.614;37.326;2023-03-01T03:01:51;2.1;;;0.3;;
51515;SDS011;37603;55.614;37.326;2023-03-01T03:07:50;2.2;;;0.3;;
51515;SDS011;37603;55.614;37.326;2023-03-01T03:13:48;2.6;;;0.3;;
51515;SDS011;37603;55.614;37.326;2023-03-01T03:19:47;3.6;;;0.5;;
51515;SDS011;37603;55.614;37.326;2023-03-01T03:25:47;1.7;;;0.4;;
51515;SDS011;37603;55.614;37.326;2023-03-01T03:31:43;1.4;;;0.3;;
51515;SDS011;37603;55.614;37.326;2023-03-01T03:37:42;0.5;;;0.2;;
51515;SDS011;37603;55.614;37.326;2023-03-01T03:43:41;1.7;;;0.2;;
51515;SDS011;37603;55.614;37.326;2023-03-01T03:49:39;2.0;;;0.4;;
51515;SDS011;37603;55.614;37.326;2023-03-01T03:55:38;1.7;;;0.3;;
51515;SDS011;37603;55.614;37.326;2023-03-01T04:01:36;1.0;;;0.3;;
51515;SDS011;37603;55.614;37.326;2023-03-01T04:13:33;1.2;;;0.4;;
51515;SDS011;37603;55.614;37.326;2023-03-01T04:19:31;2.5;;;0.4;;
51515;SDS011;37603;55.614;37.326;2023-03-01T04:25:30;0.7;;;0.2;;
51515;SDS011;37603;55.614;37.326;2023-03-01T04:31:28;3.6;;;0.5;;
51515;SDS011;37603;55.614;37.326;2023-03-01T04:37:27;0.8;;;0.3;;
51515;SDS011;37603;55.614;37.326;2023-03-01T04:43:25;1.0;;;0.5;;
51515;SDS011;37603;55.614;37.326;2023-03-01T04:49:24;4.0;;;0.7;;
51515;SDS011;37603;55.614;37.326;2023-03-01T04:55:22;2.2;;;0.6;;
51515;SDS011;37603;55.614;37.326;2023-03-01T05:01:20;0.8;;;0.4;;
51515;SDS011;37603;55.614;37.326;2023-03-01T05:07:19;4.1;;;1.1;;
51515;SDS011;37603;55.614;37.326;2023-03-01T05:13:17;1.9;;;0.6;;
51515;SDS011;37603;55.614;37.326;2023-03-01T05:19:16;1.2;;;0.4;;
51515;SDS011;37603;55.614;37.326;2023-03-01T05:25:14;1.3;;;0.6;;
51515;SDS011;37603;55.614;37.326;2023-03-01T05:31:12;3.6;;;0.7;;
51515;SDS011;37603;55.614;37.326;2023-03-01T05:37:11;4.2;;;0.9;;
51515;SDS011;37603;55.614;37.326;2023-03-01T05:43:10;1.4;;;0.4;;
51515;SDS011;37603;55.614;37.326;2023-03-01T05:49:08;2.6;;;0.4;;
51515;SDS011;37603;55.614;37.326;2023-03-01T06:01:05;1.4;;;0.5;;
51515;SDS011;37603;55.614;37.326;2023-03-01T06:07:03;3.1;;;0.9;;
51515;SDS011;37603;55.614;37.326;2023-03-01T06:13:02;3.0;;;0.6;;
51515;SDS011;37603;55.614;37.326;2023-03-01T06:19:00;4.6;;;1.0;;
51515;SDS011;37603;55.614;37.326;2023-03-01T06:24:59;2.9;;;1.1;;
51515;SDS011;37603;55.614;37.326;2023-03-01T06:30:57;3.4;;;0.7;;
51515;SDS011;37603;55.614;37.326;2023-03-01T06:36:56;3.2;;;0.6;;
51515;SDS011;37603;55.614;37.326;2023-03-01T06:42:54;2.2;;;0.7;;
51515;SDS011;37603;55.614;37.326;2023-03-01T06:48:53;2.0;;;0.8;;
51515;SDS011;37603;55.614;37.326;2023-03-01T06:54:51;3.8;;;0.7;;
51515;SDS011;37603;55.614;37.326;2023-03-01T07:00:50;3.0;;;0.9;;
51515;SDS011;37603;55.614;37.326;2023-03-01T07:06:48;4.5;;;0.9;;
51515;SDS011;37603;55.614;37.326;2023-03-01T07:12:47;1.2;;;0.6;;
51515;SDS011;37603;55.614;37.326;2023-03-01T07:18:46;2.6;;;1.0;;
51515;SDS011;37603;55.614;37.326;2023-03-01T07:24:44;4.0;;;1.4;;
51515;SDS011;37603;55.614;37.326;2023-03-01T07:30:43;3.5;;;1.7;;
51515;SDS011;37603;55.614;37.326;2023-03-01T07:36:42;4.8;;;1.8;;
51515;SDS011;37603;55.614;37.326;2023-03-01T07:42:40;3.3;;;1.5;;
51515;SDS011;37603;55.614;37.326;2023-03-01T07:54:38;5.1;;;1.7;;
51515;SDS011;37603;55.614;37.326;2023-03-01T08:00:37;2.5;;;1.2;;
51515;SDS011;37603;55.614;37.326;2023-03-01T08:06:35;4.1;;;1.3;;
51515;SDS011;37603;55.614;37.326;2023-03-01T08:12:34;3.5;;;1.5;;
51515;SDS011;37603;55.614;37.326;2023-03-01T08:18:33;3.0;;;0.9;;
51515;SDS011;37603;55.614;37.326;2023-03-01T08:24:31;4.9;;;1.6;;
51515;SDS011;37603;55.614;37.326;2023-03-01T08:30:30;3.4;;;1.3;;
51515;SDS011;37603;55.614;37.326;2023-03-01T08:36:29;3.0;;;1.2;;
51515;SDS011;37603;55.614;37.326;2023-03-01T08:42:27;3.4;;;1.4;;
51515;SDS011;37603;55.614;37.326;2023-03-01T08:48:27;1.2;;;0.6;;
51515;SDS011;37603;55.614;37.326;2023-03-01T08:54:25;2.0;;;0.9;;
51515;SDS011;37603;55.614;37.326;2023-03-01T09:00:23;3.3;;;0.7;;
51515;SDS011;37603;55.614;37.326;2023-03-01T09:06:22;1.4;;;0.5;;
51515;SDS011;37603;55.614;37.326;2023-03-01T09:12:20;4.3;;;0.8;;
51515;SDS011;37603;55.614;37.326;2023-03-01T09:18:19;6.1;;;0.6;;
51515;SDS011;37603;55.614;37.326;2023-03-01T09:24:18;2.4;;;0.5;;
51515;SDS011;37603;55.614;37.326;2023-03-01T09:30:16;2.3;;;0.7;;
51515;SDS011;37603;55.614;37.326;2023-03-01T09:36:16;1.4;;;0.5;;
51515;SDS011;37603;55.614;37.326;2023-03-01T09:42:13;1.7;;;0.8;;
51515;SDS011;37603;55.614;37.326;2023-03-01T09:48:13;1.6;;;0.7;;
51515;SDS011;37603;55.614;37.326;2023-03-01T09:54:10;1.7;;;0.6;;
51515;SDS011;37603;55.614;37.326;2023-03-01T10:00:13;1.2;;;0.5;;
51515;SDS011;37603;55.614;37.326;2023-03-01T10:06:09;1.9;;;0.5;;
51515;SDS011;37603;55.614;37.326;2023-03-01T10:12:08;2.5;;;0.6;;
51515;SDS011;37603;55.614;37.326;2023-03-01T10:18:06;1.4;;;0.5;;
51515;SDS011;37603;55.614;37.326;2023-03-01T10:24:08;4.6;;;0.6;;
51515;SDS011;37603;55.614;37.326;2023-03-01T10:30:04;1.6;;;0.4;;
51515;SDS011;37603;55.614;37.326;2023-03-01T10:36:01;1.3;;;0.5;;
51515;SDS011;37603;55.614;37.326;2023-03-01T10:42:00;1.0;;;0.4;;
51515;SDS011;37603;55.614;37.326;2023-03-01T10:48:02;1.1;;;0.5;;
51515;SDS011;37603;55.614;37.326;2023-03-01T10:53:56;0.8;;;0.3;;
51515;SDS011;37603;55.614;37.326;2023-03-01T11:00:00;3.5;;;0.7;;
51515;SDS011;37603;55.614;37.326;2023-03-01T11:05:56;1.9;;;0.5;;
51515;SDS011;37603;55.614;37.326;2023-03-01T11:11:53;0.9;;;0.5;;
51515;SDS011;37603;55.614;37.326;2023-03-01T11:17:51;2.8;;;0.6;;
51515;SDS011;37603;55.614;37.326;2023-03-01T11:23:50;1.9;;;0.3;;
51515;SDS011;37603;55.614;37.326;2023-03-01T11:29:50;2.4;;;0.5;;
51515;SDS011;37603;55.614;37.326;2023-03-01T11:35:49;1.5;;;0.7;;
51515;SDS011;37603;55.614;37.326;2023-03-01T11:41:46;0.9;;;0.5;;
51515;SDS011;37603;55.614;37.326;2023-03-01T11:47:48;4.5;;;1.0;;
51515;SDS011;37603;55.614;37.326;2023-03-01T11:53:50;1.7;;;0.7;;
51515;SDS011;37603;55.614;37.326;2023-03-01T11:59:48;3.2;;;1.1;;
51515;SDS011;37603;55.614;37.326;2023-03-01T12:05:46;2.2;;;0.6;;
51515;SDS011;37603;55.614;37.326;2023-03-01T12:11:41;1.5;;;0.5;;
51515;SDS011;37603;55.614;37.326;2023-03-01T12:17:41;2.0;;;0.5;;
51515;SDS011;37603;55.614;37.326;2023-03-01T12:23:45;1.8;;;0.6;;
51515;SDS011;37603;55.614;37.326;2023-03-01T12:29:36;3.2;;;1.4;;
51515;SDS011;37603;55.614;37.326;2023-03-01T12:35:36;4.2;;;0.6;;
51515;SDS011;37603;55.614;37.326;2023-03-01T12:41:35;2.0;;;0.5;;
51515;SDS011;37603;55.614;37.326;2023-03-01T12:47:35;1.2;;;0.4;;
51515;SDS011;37603;55.614;37.326;2023-03-01T12:53:30;1.9;;;0.7;;
51515;SDS011;37603;55.614;37.326;2023-03-01T12:59:29;0.8;;;0.4;;
51515;SDS011;37603;55.614;37.326;2023-03-01T13:05:29;2.0;;;0.3;;
51515;SDS011;37603;55.614;37.326;2023-03-01T13:11:25;2.1;;;0.5;;
51515;SDS011;37603;55.614;37.326;2023-03-01T13:17:32;0.8;;;0.3;;
51515;SDS011;37603;55.614;37.326;2023-03-01T13:23:24;1.5;;;0.4;;
51515;SDS011;37603;55.614;37.326;2023-03-01T13:29:25;3.1;;;0.5;;
51515;SDS011;37603;55.614;37.326;2023-03-01T13:41:47;1.3;;;0.4;;
51515;SDS011;37603;55.614;37.326;2023-03-01T13:53:16;1.6;;;0.5;;
51515;SDS011;37603;55.614;37.326;2023-03-01T13:59:14;2.1;;;0.3;;
51515;SDS011;37603;55.614;37.326;2023-03-01T14:05:12;1.6;;;0.3;;
51515;SDS011;37603;55.614;37.326;2023-03-01T14:11:21;1.3;;;0.7;;
51515;SDS011;37603;55.614;37.326;2023-03-01T14:23:09;1.8;;;0.4;;
51515;SDS011;37603;55.614;37.326;2023-03-01T14:29:14;3.4;;;0.6;;
51515;SDS011;37603;55.614;37.326;2023-03-01T14:35:18;1.7;;;0.7;;
51515;SDS011;37603;55.614;37.326;2023-03-01T14:41:05;0.8;;;0.4;;
51515;SDS011;37603;55.614;37.326;2023-03-01T14:47:02;2.7;;;0.7;;
51515;SDS011;37603;55.614;37.326;2023-03-01T14:53:01;1.6;;;0.7;;
51515;SDS011;37603;55.614;37.326;2023-03-01T14:58:59;1.0;;;0.6;;
51515;SDS011;37603;55.614;37.326;2023-03-01T15:04:58;2.6;;;0.8;;
51515;SDS011;37603;55.614;37.326;2023-03-01T15:10:57;1.7;;;0.5;;
51515;SDS011;37603;55.614;37.326;2023-03-01T15:16:55;2.7;;;0.5;;
51515;SDS011;37603;55.614;37.326;2023-03-01T15:22:53;1.9;;;0.5;;
51515;SDS011;37603;55.614;37.326;2023-03-01T15:28:52;2.8;;;0.6;;
51515;SDS011;37603;55.614;37.326;2023-03-01T15:34:50;0.7;;;0.6;;
51515;SDS011;37603;55.614;37.326;2023-03-01T15:40:49;1.2;;;0.6;;
51515;SDS011;37603;55.614;37.326;2023-03-01T15:46:47;1.5;;;0.7;;
51515;SDS011;37603;55.614;37.326;2023-03-01T15:52:46;1.9;;;0.6;;
51515;SDS011;37603;55.614;37.326;2023-03-01T15:58:45;2.4;;;0.7;;
51515;SDS011;37603;55.614;37.326;2023-03-01T16:04:43;1.7;;;0.9;;
51515;SDS011;37603;55.614;37.326;2023-03-01T16:10:42;3.7;;;0.6;;
51515;SDS011;37603;55.614;37.326;2023-03-01T16:16:40;1.8;;;0.4;;
51515;SDS011;37603;55.614;37.326;2023-03-01T16:22:39;1.3;;;0.5;;
51515;SDS011;37603;55.614;37.326;2023-03-01T16:28:38;3.1;;;0.7;;
51515;SDS011;37603;55.614;37.326;2023-03-01T16:34:36;2.0;;;0.5;;
51515;SDS011;37603;55.614;37.326;2023-03-01T16:40:35;1.9;;;0.5;;
51515;SDS011;37603;55.614;37.326;2023-03-01T16:46:33;2.1;;;0.6;;
51515;SDS011;37603;55.614;37.326;2023-03-01T16:52:33;3.7;;;0.8;;
51515;SDS011;37603;55.614;37.326;2023-03-01T16:58:30;3.0;;;0.6;;
51515;SDS011;37603;55.614;37.326;2023-03-01T17:04:29;1.9;;;0.7;;
51515;SDS011;37603;55.614;37.326;2023-03-01T17:10:27;1.6;;;0.6;;
51515;SDS011;37603;55.614;37.326;2023-03-01T17:16:26;2.4;;;0.6;;
51515;SDS011;37603;55.614;37.326;2023-03-01T17:22:24;1.9;;;0.7;;
51515;SDS011;37603;55.614;37.326;2023-03-01T17:28:23;3.2;;;1.3;;
51515;SDS011;37603;55.614;37.326;2023-03-01T17:34:22;2.5;;;0.8;;
51515;SDS011;37603;55.614;37.326;2023-03-01T17:40:20;1.5;;;0.6;;
51515;SDS011;37603;55.614;37.326;2023-03-01T17:46:19;1.6;;;0.7;;
51515;SDS011;37603;55.614;37.326;2023-03-01T17:52:17;2.2;;;0.6;;
51515;SDS011;37603;55.614;37.326;2023-03-01T17:58:16;5.4;;;0.9;;
51515;SDS011;37603;55.614;37.326;2023-03-01T18:04:14;5.0;;;1.6;;
51515;SDS011;37603;55.614;37.326;2023-03-01T18:10:13;8.0;;;1.8;;
51515;SDS011;37603;55.614;37.326;2023-03-01T18:16:12;6.7;;;1.7;;
51515;SDS011;37603;55.614;37.326;2023-03-01T18:22:10;5.9;;;1.5;;
51515;SDS011;37603;55.614;37.326;2023-03-01T18:28:09;3.0;;;1.3;;
51515;SDS011;37603;55.614;37.326;2023-03-01T18:34:08;4.3;;;1.6;;
51515;SDS011;37603;55.614;37.326;2023-03-01T18:40:06;3.7;;;1.4;;
51515;SDS011;37603;55.614;37.326;2023-03-01T18:46:04;3.4;;;1.3;;
51515;SDS011;37603;55.614;37.326;2023-03-01T18:52:03;3.8;;;1.2;;
51515;SDS011;37603;55.614;37.326;2023-03-01T18:58:01;2.9;;;1.4;;
51515;SDS011;37603;55.614;37.326;2023-03-01T19:04:00;2.1;;;1.0;;
51515;SDS011;37603;55.614;37.326;2023-03-01T19:09:58;3.3;;;0.9;;
51515;SDS011;37603;55.614;37.326;2023-03-01T19:16:01;5.1;;;1.2;;
51515;SDS011;37603;55.614;37.326;2023-03-01T19:21:55;2.1;;;1.0;;
51515;SDS011;37603;55.614;37.326;2023-03-01T19:27:54;2.2;;;0.8;;
51515;SDS011;37603;55.614;37.326;2023-03-01T19:33:53;3.5;;;1.1;;
51515;SDS011;37603;55.614;37.326;2023-03-01T19:39:51;4.4;;;1.1;;
51515;SDS011;37603;55.614;37.326;2023-03-01T19:45:50;2.2;;;1.1;;
51515;SDS011;37603;55.614;37.326;2023-03-01T19:51:48;4.6;;;0.7;;
51515;SDS011;37603;55.614;37.326;2023-03-01T19:57:47;2.0;;;0.9;;
51515;SDS011;37603;55.614;37.326;2023-03-01T20:03:45;2.8;;;0.7;;
51515;SDS011;37603;55.614;37.326;2023-03-01T20:09:44;2.5;;;1.0;;
51515;SDS011;37603;55.614;37.326;2023-03-01T20:15:43;1.9;;;1.0;;
51515;SDS011;37603;55.614;37.326;2023-03-01T20:21:41;4.9;;;1.5;;
51515;SDS011;37603;55.614;37.326;2023-03-01T20:27:40;4.6;;;1.4;;
51515;SDS011;37603;55.614;37.326;2023-03-01T20:33:38;5.9;;;1.6;;
51515;SDS011;37603;55.614;37.326;2023-03-01T20:39:37;4.9;;;1.6;;
51515;SDS011;37603;55.614;37.326;2023-03-01T20:45:36;2.5;;;1.3;;
51515;SDS011;37603;55.614;37.326;2023-03-01T20:51:34;5.0;;;1.3;;
51515;SDS011;37603;55.614;37.326;2023-03-01T20:57:33;6.0;;;1.8;;
51515;SDS011;37603;55.614;37.326;2023-03-01T21:03:31;5.2;;;1.7;;
51515;SDS011;37603;55.614;37.326;2023-03-01T21:09:29;7.0;;;1.7;;
51515;SDS011;37603;55.614;37.326;2023-03-01T21:15:28;3.8;;;1.5;;
51515;SDS011;37603;55.614;37.326;2023-03-01T21:21:27;3.4;;;1.2;;
51515;SDS011;37603;55.614;37.326;2023-03-01T21:27:25;3.1;;;1.1;;
51515;SDS011;37603;55.614;37.326;2023-03-01T21:33:24;2.8;;;1.0;;
51515;SDS011;37603;55.614;37.326;2023-03-01T21:39:22;4.5;;;1.3;;
51515;SDS011;37603;55.614;37.326;2023-03-01T21:45:21;3.8;;;1.1;;
51515;SDS011;37603;55.614;37.326;2023-03-01T21:51:20;5.4;;;1.2;;
51515;SDS011;37603;55.614;37.326;2023-03-01T21:57:18;4.9;;;1.2;;
51515;SDS011;37603;55.614;37.326;2023-03-01T22:03:16;4.0;;;1.1;;
51515;SDS011;37603;55.614;37.326;2023-03-01T22:09:16;2.3;;;1.0;;
51515;SDS011;37603;55.614;37.326;2023-03-01T22:15:14;8.6;;;0.9;;
51515;SDS011;37603;55.614;37.326;2023-03-01T22:21:12;2.7;;;1.4;;
51515;SDS011;37603;55.614;37.326;2023-03-01T22:27:11;3.0;;;1.3;;
51515;SDS011;37603;55.614;37.326;2023-03-01T22:33:09;3.8;;;1.5;;
51515;SDS011;37603;55.614;37.326;2023-03-01T22:39:08;5.6;;;2.0;;
51515;SDS011;37603;55.614;37.326;2023-03-01T22:45:07;7.5;;;3.0;;
51515;SDS011;37603;55.614;37.326;2023-03-01T22:51:05;6.0;;;2.7;;
51515;SDS011;37603;55.614;37.326;2023-03-01T22:57:03;10.7;;;3.0;;
51515;SDS011;37603;55.614;37.326;2023-03-01T23:03:02;6.7;;;2.5;;
51515;SDS011;37603;55.614;37.326;2023-03-01T23:09:01;6.5;;;2.4;;
51515;SDS011;37603;55.614;37.326;2023-03-01T23:14:59;6.8;;;2.6;;
51515;SDS011;37603;55.614;37.326;2023-03-01T23:20:58;8.3;;;2.5;;
51515;SDS011;37603;55.614;37.326;2023-03-01T23:26:56;7.7;;;2.5;;
51515;SDS011;37603;55.614;37.326;2023-03-01T23:32:55;5.8;;;2.1;;
51515;SDS011;37603;55.614;37.326;2023-03-01T23:38:54;5.5;;;1.8;;
51515;SDS011;37603;55.614;37.326;2023-03-01T23:44:52;3.3;;;0.9;;
51515;SDS011;37603;55.614;37.326;2023-03-01T23:50:50;3.4;;;0.6;;
51515;SDS011;37603;55.614;37.326;2023-03-01T23:56:49;3.7;;;1.1;;
